Terminal Aerodrome Forecast
Issued by NWS Jackson, MS

Home | Current Version | Previous Version | Text Only | Print | Product List | Glossary On
Versions: 1 2 3 4 5 6 7 8 9 10 11 12 13 14 15
000
FTUS44 KJAN 241120
TAFMEI
TAF
KMEI 241120Z 2412/2512 11004KT P6SM FEW050 SCT150
     FM241400 15012KT P6SM OVC025
     FM241700 15015G22KT P6SM BKN035
     FM241900 15015G21KT P6SM VCTS BKN040CB BKN250
     FM250000 14010KT P6SM BKN100
     FM250600 16009KT P6SM OVC015
     FM250800 16008KT 4SM BR OVC007=

USA.gov is the U.S. government's official web portal to all federal, state and local government web resources and services.